Time;durP1;ratioP1;P1;durP2;ratioP2;P2;SDS_P1;SDS_P2;PMS_P1;PMS_P2;Temp;Humidity;BMP_temperature;BMP_pressure;BME280_temperature;BME280_humidity;BME280_pressure;Samples;Min_cycle;Max_cycle;Signal;HPM_P1;HPM_P2
2022/05/23 00:01:33;;;;;;;4.63;2.93;;;;;;;;;;5032249;28;20238;-84
2022/05/23 00:04:00;;;;;;;2.57;2.37;;;;;;;;;;5032519;28;20615;-84
2022/05/23 00:06:27;;;;;;;3.20;2.90;;;;;;;;;;5031978;28;20238;-84
2022/05/23 00:08:54;;;;;;;4.17;2.90;;;;;;;;;;5031677;28;20199;-84
2022/05/23 00:11:21;;;;;;;4.27;3.00;;;;;;;;;;5031987;28;20640;-84
2022/05/23 00:13:48;;;;;;;3.53;3.00;;;;;;;;;;5032153;28;20201;-84
2022/05/23 00:16:20;;;;;;;4.50;2.77;;;;;;;;;;5031816;28;20590;-84
2022/05/23 00:18:47;;;;;;;5.67;3.30;;;;;;;;;;5032125;28;20198;-85
2022/05/23 00:21:14;;;;;;;3.87;3.03;;;;;;;;;;5031873;28;20730;-84
2022/05/23 00:23:41;;;;;;;3.53;2.90;;;;;;;;;;5032072;28;20256;-84
2022/05/23 00:26:10;;;;;;;3.77;2.77;;;;;;;;;;5031635;28;20242;-84
2022/05/23 00:28:38;;;;;;;4.60;2.90;;;;;;;;;;5032278;28;20686;-84
2022/05/23 00:31:05;;;;;;;4.10;2.80;;;;;;;;;;5031506;28;20710;-84
2022/05/23 00:36:18;;;;;;;6.43;2.93;;;;;;;;;;5031570;28;20265;-84
2022/05/23 00:38:45;;;;;;;5.17;3.40;;;;;;;;;;5032419;28;20218;-84
2022/05/23 00:44:08;;;;;;;3.30;3.00;;;;;;;;;;4958127;28;20576;-84
2022/05/23 00:46:35;;;;;;;3.10;2.80;;;;;;;;;;5034624;28;20242;-84
2022/05/23 00:49:05;;;;;;;5.10;3.23;;;;;;;;;;5036360;28;20251;-84
2022/05/23 00:51:33;;;;;;;3.10;2.80;;;;;;;;;;5036871;28;20260;-86
2022/05/23 00:54:02;;;;;;;3.43;3.10;;;;;;;;;;5037248;28;20238;-85
2022/05/23 00:56:31;;;;;;;6.00;3.40;;;;;;;;;;5036704;28;20235;-84
2022/05/23 00:59:01;;;;;;;3.30;3.00;;;;;;;;;;5032430;28;20208;-84
2022/05/23 01:01:30;;;;;;;4.20;3.30;;;;;;;;;;5031811;28;20226;-84
2022/05/23 01:03:59;;;;;;;4.73;3.30;;;;;;;;;;5035425;28;20207;-85
2022/05/23 01:06:27;;;;;;;3.33;2.83;;;;;;;;;;5034600;28;20265;-84
2022/05/23 01:08:56;;;;;;;3.70;3.13;;;;;;;;;;5031434;28;20253;-85
2022/05/23 01:11:24;;;;;;;7.07;3.33;;;;;;;;;;5035296;28;20318;-85
2022/05/23 01:13:53;;;;;;;5.90;3.07;;;;;;;;;;5043024;28;20229;-85
2022/05/23 01:16:21;;;;;;;4.80;3.13;;;;;;;;;;5035272;28;20238;-84
2022/05/23 01:18:48;;;;;;;3.40;3.10;;;;;;;;;;5039519;28;20258;-85
2022/05/23 01:21:16;;;;;;;3.23;2.93;;;;;;;;;;5040463;28;20242;-84
2022/05/23 01:23:49;;;;;;;4.73;3.07;;;;;;;;;;5035573;28;20199;-84
2022/05/23 01:26:17;;;;;;;3.13;2.83;;;;;;;;;;5034722;28;20706;-84
2022/05/23 01:28:45;;;;;;;3.20;2.90;;;;;;;;;;5035580;28;20202;-84
2022/05/23 01:31:13;;;;;;;3.03;2.80;;;;;;;;;;5034918;28;20288;-85
2022/05/23 01:33:40;;;;;;;3.53;2.97;;;;;;;;;;5035049;28;20211;-84
2022/05/23 01:36:11;;;;;;;5.93;3.33;;;;;;;;;;5034596;28;20587;-85
2022/05/23 01:38:38;;;;;;;5.00;3.03;;;;;;;;;;5035320;28;20187;-84
2022/05/23 01:41:06;;;;;;;3.20;2.90;;;;;;;;;;5034708;28;20234;-85
2022/05/23 01:43:35;;;;;;;6.13;3.00;;;;;;;;;;5034994;28;20208;-84
2022/05/23 01:46:02;;;;;;;3.17;2.90;;;;;;;;;;5034416;28;20293;-85
2022/05/23 01:48:29;;;;;;;3.70;3.03;;;;;;;;;;5035282;28;20218;-85
2022/05/23 01:50:56;;;;;;;3.17;2.90;;;;;;;;;;5034344;28;20571;-85
2022/05/23 01:53:25;;;;;;;4.13;3.27;;;;;;;;;;5034919;28;20211;-85
2022/05/23 01:55:52;;;;;;;4.70;3.23;;;;;;;;;;5034106;28;20242;-85
2022/05/23 02:01:12;;;;;;;3.40;3.10;;;;;;;;;;5034999;28;20206;-84
2022/05/23 02:01:13;;;;;;;5.20;3.57;;;;;;;;;;5033937;28;20254;-85
2022/05/23 02:03:41;;;;;;;3.97;2.93;;;;;;;;;;5034828;28;20217;-85
2022/05/23 02:06:08;;;;;;;4.07;3.27;;;;;;;;;;5034168;28;20246;-85
2022/05/23 02:08:35;;;;;;;4.13;3.30;;;;;;;;;;5035011;28;20257;-84
2022/05/23 02:11:02;;;;;;;4.20;3.13;;;;;;;;;;5034014;28;20844;-85
2022/05/23 02:13:29;;;;;;;6.50;3.07;;;;;;;;;;5034462;28;20203;-85
2022/05/23 02:15:56;;;;;;;6.37;3.27;;;;;;;;;;5033974;28;20234;-84
2022/05/23 02:18:24;;;;;;;3.47;3.17;;;;;;;;;;5034649;28;20203;-85
2022/05/23 02:20:51;;;;;;;5.53;3.10;;;;;;;;;;5033794;28;20241;-85
2022/05/23 02:23:18;;;;;;;4.10;3.07;;;;;;;;;;5034326;28;20657;-84
2022/05/23 02:25:45;;;;;;;3.50;3.20;;;;;;;;;;5033879;28;20230;-85
2022/05/23 02:28:12;;;;;;;3.47;2.80;;;;;;;;;;5034347;28;20291;-85
2022/05/23 02:30:39;;;;;;;6.60;3.23;;;;;;;;;;5033916;28;20238;-85
2022/05/23 02:33:07;;;;;;;6.97;3.40;;;;;;;;;;5034167;28;20203;-85
2022/05/23 02:35:35;;;;;;;4.33;3.17;;;;;;;;;;5033337;28;20313;-85
2022/05/23 02:38:02;;;;;;;4.13;3.43;;;;;;;;;;5034958;28;20222;-87
2022/05/23 02:40:29;;;;;;;4.17;3.20;;;;;;;;;;5033947;28;20760;-86
2022/05/23 02:42:56;;;;;;;4.10;3.00;;;;;;;;;;5034821;28;20206;-87
2022/05/23 02:45:23;;;;;;;3.73;3.27;;;;;;;;;;5033631;28;20288;-86
2022/05/23 02:47:51;;;;;;;4.53;3.07;;;;;;;;;;5034201;28;20253;-86
2022/05/23 02:50:19;;;;;;;5.10;3.30;;;;;;;;;;5034319;28;20225;-86
2022/05/23 02:52:47;;;;;;;5.97;3.47;;;;;;;;;;5034141;28;20265;-86
2022/05/23 02:55:14;;;;;;;7.93;3.40;;;;;;;;;;5033954;28;20264;-87
2022/05/23 02:57:41;;;;;;;8.13;3.33;;;;;;;;;;5034583;28;20211;-85
2022/05/23 03:00:09;;;;;;;6.83;3.40;;;;;;;;;;5033568;28;20219;-86
2022/05/23 03:05:21;;;;;;;5.37;3.43;;;;;;;;;;5033697;28;20236;-87
2022/05/23 03:07:49;;;;;;;7.93;3.77;;;;;;;;;;5033159;28;20194;-86
2022/05/23 03:10:16;;;;;;;4.33;3.90;;;;;;;;;;5033919;28;20222;-86
2022/05/23 03:12:45;;;;;;;4.00;3.60;;;;;;;;;;5034075;28;20211;-87
2022/05/23 03:15:13;;;;;;;5.23;3.53;;;;;;;;;;5033695;28;20227;-87
2022/05/23 03:17:41;;;;;;;5.47;3.20;;;;;;;;;;5033851;28;20788;-87
2022/05/23 03:20:09;;;;;;;4.07;3.10;;;;;;;;;;5033599;28;20295;-87
2022/05/23 03:28:07;;;;;;;5.60;3.00;;;;;;;;;;5033850;28;20198;-87
2022/05/23 03:30:34;;;;;;;4.30;3.30;;;;;;;;;;5033366;28;20234;-86
2022/05/23 03:33:01;;;;;;;3.70;3.40;;;;;;;;;;5034084;28;20725;-86
2022/05/23 03:35:30;;;;;;;4.13;3.33;;;;;;;;;;5033297;28;20281;-87
2022/05/23 03:37:57;;;;;;;3.67;3.23;;;;;;;;;;5033522;28;20297;-86
2022/05/23 03:40:31;;;;;;;5.73;3.27;;;;;;;;;;5033900;28;20234;-86
2022/05/23 03:43:04;;;;;;;3.70;3.40;;;;;;;;;;5043725;28;20210;-87
2022/05/23 03:45:32;;;;;;;4.57;3.33;;;;;;;;;;5043308;28;20244;-87
2022/05/23 03:48:00;;;;;;;4.97;3.67;;;;;;;;;;5045343;28;20309;-88
2022/05/23 03:50:29;;;;;;;5.80;3.93;;;;;;;;;;5043489;28;20232;-88
2022/05/23 03:52:59;;;;;;;5.70;3.40;;;;;;;;;;5044423;28;20210;-87
2022/05/23 03:55:28;;;;;;;3.83;3.40;;;;;;;;;;5036743;28;20288;-87
2022/05/23 03:57:55;;;;;;;4.77;3.33;;;;;;;;;;5036630;28;20237;-87
2022/05/23 04:00:23;;;;;;;4.90;3.47;;;;;;;;;;5033998;28;20615;-87
2022/05/23 04:02:51;;;;;;;6.67;3.27;;;;;;;;;;5036051;28;20209;-86
2022/05/23 04:05:19;;;;;;;5.57;3.40;;;;;;;;;;5034229;28;20235;-87
2022/05/23 04:07:46;;;;;;;6.03;3.40;;;;;;;;;;5034049;28;20202;-86
2022/05/23 04:10:16;;;;;;;5.87;3.33;;;;;;;;;;5033007;28;20212;-86
2022/05/23 04:12:44;;;;;;;4.07;3.33;;;;;;;;;;5033404;28;20220;-87
2022/05/23 04:15:12;;;;;;;5.23;3.13;;;;;;;;;;5032807;28;20237;-87
2022/05/23 04:17:39;;;;;;;4.17;2.80;;;;;;;;;;5033694;28;20280;-87
2022/05/23 04:20:08;;;;;;;4.53;3.40;;;;;;;;;;5032286;28;20222;-87
2022/05/23 04:22:35;;;;;;;4.30;3.20;;;;;;;;;;5031106;28;20659;-87
2022/05/23 04:25:02;;;;;;;3.23;2.93;;;;;;;;;;5032892;28;20218;-87
2022/05/23 04:27:30;;;;;;;5.83;3.60;;;;;;;;;;5030199;28;20211;-88
2022/05/23 04:29:58;;;;;;;5.27;3.33;;;;;;;;;;5033007;28;20277;-88
2022/05/23 04:35:16;;;;;;;4.73;3.57;;;;;;;;;;5028511;28;20218;-88
2022/05/23 04:37:44;;;;;;;7.17;3.43;;;;;;;;;;5032243;28;20204;-82
2022/05/23 04:40:12;;;;;;;5.17;3.23;;;;;;;;;;5023810;28;20225;-87
2022/05/23 04:42:39;;;;;;;5.17;3.10;;;;;;;;;;5032357;28;20284;-86
2022/05/23 04:45:08;;;;;;;3.90;3.30;;;;;;;;;;5031627;28;20199;-86
2022/05/23 04:50:20;;;;;;;4.17;3.30;;;;;;;;;;5025033;28;20257;-86
2022/05/23 04:52:47;;;;;;;4.00;3.40;;;;;;;;;;5031502;28;20191;-85
2022/05/23 04:55:14;;;;;;;6.67;3.77;;;;;;;;;;5031232;28;20310;-86
2022/05/23 04:57:41;;;;;;;6.67;3.80;;;;;;;;;;5026884;28;20294;-87
2022/05/23 05:00:11;;;;;;;5.20;3.40;;;;;;;;;;5019330;28;20215;-85
2022/05/23 05:02:39;;;;;;;5.87;3.70;;;;;;;;;;5040095;28;20221;-85
2022/05/23 05:05:07;;;;;;;8.27;4.10;;;;;;;;;;5025848;28;20721;-85
2022/05/23 05:07:35;;;;;;;4.13;3.40;;;;;;;;;;5033950;28;20225;-85
2022/05/23 05:10:02;;;;;;;10.33;4.50;;;;;;;;;;5017693;28;20265;-85
2022/05/23 05:12:29;;;;;;;5.83;3.30;;;;;;;;;;5032401;28;20569;-83
2022/05/23 05:14:56;;;;;;;3.03;2.80;;;;;;;;;;5032230;28;20207;-86
2022/05/23 05:17:24;;;;;;;5.70;2.90;;;;;;;;;;5033280;28;20238;-87
2022/05/23 05:19:51;;;;;;;4.73;2.87;;;;;;;;;;5032771;28;20288;-86
2022/05/23 05:22:18;;;;;;;4.70;2.90;;;;;;;;;;5031997;28;20325;-86
2022/05/23 05:24:45;;;;;;;4.57;3.00;;;;;;;;;;5043743;28;20206;-84
2022/05/23 05:27:13;;;;;;;4.23;2.60;;;;;;;;;;5048492;28;20234;-83
2022/05/23 05:29:40;;;;;;;3.17;2.73;;;;;;;;;;5049040;28;20206;-83
2022/05/23 05:32:09;;;;;;;4.00;3.10;;;;;;;;;;5036120;28;20695;-83
2022/05/23 05:34:39;;;;;;;8.10;3.50;;;;;;;;;;5039070;28;20195;-82
2022/05/23 05:37:09;;;;;;;7.37;3.53;;;;;;;;;;5036734;28;20545;-82
2022/05/23 05:39:37;;;;;;;8.20;3.60;;;;;;;;;;5035717;28;20222;-82
2022/05/23 05:42:09;;;;;;;4.73;3.17;;;;;;;;;;5036046;28;20234;-84
2022/05/23 05:44:37;;;;;;;4.17;3.37;;;;;;;;;;5036016;28;20237;-84
2022/05/23 05:47:08;;;;;;;5.97;3.50;;;;;;;;;;5034567;28;20231;-86
2022/05/23 05:49:36;;;;;;;4.57;3.73;;;;;;;;;;5036044;28;20579;-82
2022/05/23 05:52:06;;;;;;;7.63;3.57;;;;;;;;;;5035969;28;20241;-83
2022/05/23 05:54:33;;;;;;;3.50;3.20;;;;;;;;;;5036385;28;20203;-84
2022/05/23 05:57:01;;;;;;;3.60;3.27;;;;;;;;;;5031990;28;20238;-87
2022/05/23 05:59:29;;;;;;;4.00;3.70;;;;;;;;;;5035868;28;20270;-86
2022/05/23 06:01:56;;;;;;;4.00;3.60;;;;;;;;;;5036169;28;20238;-86
2022/05/23 06:04:23;;;;;;;3.77;3.30;;;;;;;;;;5035356;28;20662;-86
2022/05/23 06:12:20;;;;;;;7.93;3.73;;;;;;;;;;5016096;28;20281;-86
2022/05/23 06:14:47;;;;;;;8.37;3.77;;;;;;;;;;5033296;28;20234;-86
2022/05/23 06:17:20;;;;;;;4.33;3.67;;;;;;;;;;5027635;28;20715;-86
2022/05/23 06:19:48;;;;;;;10.77;3.80;;;;;;;;;;5034604;28;20219;-86
2022/05/23 06:22:16;;;;;;;4.57;3.50;;;;;;;;;;5033335;28;20230;-86
2022/05/23 06:24:45;;;;;;;3.93;3.53;;;;;;;;;;5033947;28;20203;-85
2022/05/23 06:27:12;;;;;;;4.43;4.00;;;;;;;;;;5033554;28;20322;-86
2022/05/23 06:29:39;;;;;;;4.03;3.73;;;;;;;;;;5034350;28;20219;-86
2022/05/23 06:32:07;;;;;;;9.80;4.20;;;;;;;;;;5014485;28;20238;-86
2022/05/23 06:34:34;;;;;;;3.93;3.47;;;;;;;;;;5014383;28;20217;-85
2022/05/23 06:37:01;;;;;;;3.93;3.30;;;;;;;;;;5013714;28;20239;-86
2022/05/23 06:39:28;;;;;;;4.53;3.50;;;;;;;;;;5014216;28;20218;-86
2022/05/23 06:41:57;;;;;;;4.63;3.50;;;;;;;;;;5022290;28;20301;-86
2022/05/23 06:44:24;;;;;;;7.30;3.20;;;;;;;;;;5033049;28;20210;-86
2022/05/23 06:46:51;;;;;;;3.73;3.23;;;;;;;;;;5032879;28;20289;-86
2022/05/23 06:49:18;;;;;;;4.90;3.93;;;;;;;;;;5033768;28;20206;-86
2022/05/23 06:51:49;;;;;;;7.30;3.83;;;;;;;;;;5032982;28;20230;-87
2022/05/23 06:54:16;;;;;;;4.90;3.70;;;;;;;;;;5033366;28;20194;-86
2022/05/23 06:56:43;;;;;;;4.73;3.40;;;;;;;;;;5032936;28;20331;-86
2022/05/23 06:59:12;;;;;;;7.33;3.13;;;;;;;;;;5033193;28;20258;-86
2022/05/23 07:01:39;;;;;;;4.00;3.60;;;;;;;;;;5033147;28;20229;-86
2022/05/23 07:04:07;;;;;;;5.50;3.70;;;;;;;;;;5031581;28;20284;-85
2022/05/23 07:12:23;;;;;;;3.40;3.10;;;;;;;;;;5032914;28;20385;-84
2022/05/23 07:14:52;;;;;;;5.03;3.07;;;;;;;;;;5033316;28;20214;-84
2022/05/23 07:17:19;;;;;;;3.27;3.03;;;;;;;;;;5032512;28;20754;-85
2022/05/23 07:19:46;;;;;;;2.70;2.50;;;;;;;;;;5032788;28;20667;-85
2022/05/23 07:22:13;;;;;;;3.77;2.47;;;;;;;;;;5032029;28;20230;-84
2022/05/23 07:24:41;;;;;;;3.03;2.40;;;;;;;;;;5033549;28;20218;-86
2022/05/23 07:27:10;;;;;;;3.20;2.73;;;;;;;;;;5033119;28;20698;-86
2022/05/23 07:29:37;;;;;;;4.97;2.40;;;;;;;;;;5033767;28;20210;-86
2022/05/23 07:32:06;;;;;;;2.50;2.30;;;;;;;;;;5033225;28;20285;-87
2022/05/23 07:34:33;;;;;;;2.50;2.30;;;;;;;;;;5032984;28;20237;-86
2022/05/23 07:37:00;;;;;;;4.63;2.30;;;;;;;;;;5032829;28;20281;-86
2022/05/23 07:39:27;;;;;;;4.45;2.58;;;;;;;;;;5034321;28;20293;-87
2022/05/23 07:41:54;;;;;;;2.30;2.15;;;;;;;;;;5032770;28;20703;-86
2022/05/23 07:44:22;;;;;;;2.53;2.30;;;;;;;;;;5034375;28;20701;-86
2022/05/23 07:46:49;;;;;;;5.25;2.35;;;;;;;;;;5034169;28;20234;-86
2022/05/23 07:49:17;;;;;;;2.30;1.90;;;;;;;;;;5035035;28;20202;-85
2022/05/23 07:51:44;;;;;;;2.20;2.00;;;;;;;;;;5035155;28;20235;-87
2022/05/23 08:02:26;;;;;;;2.55;1.45;;;;;;;;;;5032729;28;20234;-86
2022/05/23 08:04:55;;;;;;;2.72;1.52;;;;;;;;;;5034112;28;20276;-87
2022/05/23 08:07:23;;;;;;;2.03;1.55;;;;;;;;;;5033026;28;20242;-86
2022/05/23 08:09:50;;;;;;;1.60;1.50;;;;;;;;;;5032359;28;20246;-87
2022/05/23 08:12:17;;;;;;;2.22;1.63;;;;;;;;;;5032019;28;20231;-87
2022/05/23 08:14:44;;;;;;;2.33;1.60;;;;;;;;;;5032741;28;20214;-86
2022/05/23 08:17:11;;;;;;;6.40;1.75;;;;;;;;;;5034663;28;20678;-88
2022/05/23 08:19:38;;;;;;;2.33;1.60;;;;;;;;;;5033031;28;20218;-88
2022/05/23 08:22:07;;;;;;;3.22;1.60;;;;;;;;;;5031649;28;20245;-85
2022/05/23 08:24:34;;;;;;;3.70;1.58;;;;;;;;;;5030899;28;20211;-84
2022/05/23 08:27:01;;;;;;;1.98;1.63;;;;;;;;;;5032261;28;20242;-85
2022/05/23 08:29:29;;;;;;;1.50;1.38;;;;;;;;;;5032420;28;20297;-86
2022/05/23 08:31:56;;;;;;;2.13;1.40;;;;;;;;;;5037526;28;20234;-85
2022/05/23 08:34:23;;;;;;;3.67;1.73;;;;;;;;;;5032427;28;20207;-85
2022/05/23 08:36:52;;;;;;;2.35;1.80;;;;;;;;;;5032324;28;20304;-86
2022/05/23 08:39:20;;;;;;;3.00;1.70;;;;;;;;;;5033785;28;20252;-86
2022/05/23 08:41:49;;;;;;;3.88;1.85;;;;;;;;;;5033774;28;20737;-86
2022/05/23 08:44:18;;;;;;;1.58;1.35;;;;;;;;;;5032721;28;20202;-85
2022/05/23 08:46:47;;;;;;;2.47;1.77;;;;;;;;;;5030688;28;20685;-86
2022/05/23 08:49:22;;;;;;;4.63;1.40;;;;;;;;;;5032145;28;20214;-86
2022/05/23 08:51:54;;;;;;;5.22;1.58;;;;;;;;;;5038509;28;20226;-86
2022/05/23 08:54:31;;;;;;;4.78;1.80;;;;;;;;;;5040082;28;20202;-86
2022/05/23 08:56:58;;;;;;;5.07;2.20;;;;;;;;;;5039789;28;20234;-85
2022/05/23 08:59:27;;;;;;;2.88;1.85;;;;;;;;;;5036544;28;20210;-85
2022/05/23 09:01:56;;;;;;;1.77;1.67;;;;;;;;;;5035712;28;20235;-86
2022/05/23 09:04:28;;;;;;;2.22;1.77;;;;;;;;;;5034595;28;20260;-86
2022/05/23 09:06:56;;;;;;;7.05;1.92;;;;;;;;;;5034153;28;20288;-87
2022/05/23 09:09:25;;;;;;;3.70;1.58;;;;;;;;;;5039721;28;20218;-87
2022/05/23 09:11:54;;;;;;;4.63;1.70;;;;;;;;;;5036876;28;20222;-87
2022/05/23 09:14:21;;;;;;;4.30;1.60;;;;;;;;;;5041670;28;20241;-86
2022/05/23 09:16:50;;;;;;;4.40;2.60;;;;;;;;;;5036210;28;20234;-87
2022/05/23 09:19:20;;;;;;;2.53;1.75;;;;;;;;;;5042748;28;20268;-87
2022/05/23 09:24:39;;;;;;;4.18;1.70;;;;;;;;;;5035802;28;20186;-85
2022/05/23 09:27:09;;;;;;;3.08;1.70;;;;;;;;;;5035222;28;20258;-85
2022/05/23 09:29:37;;;;;;;3.80;1.70;;;;;;;;;;5035562;28;20245;-85
2022/05/23 09:32:08;;;;;;;3.10;1.55;;;;;;;;;;5035905;28;20252;-86
2022/05/23 09:34:37;;;;;;;3.00;1.65;;;;;;;;;;5036793;28;20203;-87
2022/05/23 09:37:05;;;;;;;3.10;1.50;;;;;;;;;;5035609;28;20234;-87
2022/05/23 09:39:34;;;;;;;4.47;1.92;;;;;;;;;;5036113;28;20268;-86
2022/05/23 09:47:46;;;;;;;4.82;1.80;;;;;;;;;;5036515;28;20306;-87
2022/05/23 09:50:13;;;;;;;1.80;1.70;;;;;;;;;;5037639;28;20201;-87
2022/05/23 09:52:42;;;;;;;2.75;1.50;;;;;;;;;;5039488;28;20553;-87
2022/05/23 09:55:12;;;;;;;3.10;1.92;;;;;;;;;;5035172;28;20623;-88
2022/05/23 09:57:41;;;;;;;5.43;1.70;;;;;;;;;;5038476;28;20213;-87
2022/05/23 10:00:10;;;;;;;7.43;1.80;;;;;;;;;;5036561;28;20718;-88
2022/05/23 10:02:38;;;;;;;3.28;1.80;;;;;;;;;;5038560;28;20230;-86
2022/05/23 10:05:07;;;;;;;2.25;1.25;;;;;;;;;;5036127;28;20306;-86
2022/05/23 10:07:36;;;;;;;1.58;1.30;;;;;;;;;;5039123;28;20195;-86
2022/05/23 10:10:05;;;;;;;2.38;1.45;;;;;;;;;;5036004;28;20207;-86
2022/05/23 10:12:33;;;;;;;2.97;1.77;;;;;;;;;;5035272;28;20206;-87
2022/05/23 10:15:11;;;;;;;3.60;1.70;;;;;;;;;;5035260;28;20214;-87
2022/05/23 10:17:39;;;;;;;5.10;1.55;;;;;;;;;;5036439;28;20474;-86
2022/05/23 10:20:25;;;;;;;7.65;1.70;;;;;;;;;;5037238;28;20268;-86
2022/05/23 10:22:56;;;;;;;2.78;1.50;;;;;;;;;;5035632;28;20222;-88
2022/05/23 10:25:24;;;;;;;2.75;1.40;;;;;;;;;;5037441;28;20242;-88
2022/05/23 10:27:53;;;;;;;3.63;1.55;;;;;;;;;;5041043;28;20210;-88
2022/05/23 10:30:24;;;;;;;4.90;1.38;;;;;;;;;;5044383;28;20298;-87
2022/05/23 10:32:53;;;;;;;6.10;1.52;;;;;;;;;;5035183;28;20207;-84
2022/05/23 10:35:23;;;;;;;3.03;1.48;;;;;;;;;;5033977;28;20231;-85
2022/05/23 10:37:51;;;;;;;3.33;1.23;;;;;;;;;;5014296;28;20664;-83
2022/05/23 10:43:10;;;;;;;2.75;1.70;;;;;;;;;;4974935;28;20274;-85
2022/05/23 10:45:41;;;;;;;4.15;1.50;;;;;;;;;;5013989;28;20234;-84
2022/05/23 10:48:23;;;;;;;4.05;1.98;;;;;;;;;;5013289;28;20211;-83
2022/05/23 10:50:54;;;;;;;4.35;1.83;;;;;;;;;;5014386;28;20709;-84
2022/05/23 10:53:25;;;;;;;2.33;1.77;;;;;;;;;;5014807;28;20279;-85
2022/05/23 10:55:57;;;;;;;3.90;1.92;;;;;;;;;;5020464;28;20266;-85
2022/05/23 10:58:29;;;;;;;4.00;2.08;;;;;;;;;;5014646;28;20207;-86
2022/05/23 11:01:03;;;;;;;5.00;2.08;;;;;;;;;;5026655;28;20238;-86
2022/05/23 11:03:35;;;;;;;2.33;1.38;;;;;;;;;;5034428;28;20210;-87
2022/05/23 11:06:07;;;;;;;1.67;1.50;;;;;;;;;;5034523;28;20278;-86
2022/05/23 11:08:52;;;;;;;4.40;1.83;;;;;;;;;;5033752;28;20260;-86
2022/05/23 11:11:24;;;;;;;4.05;1.90;;;;;;;;;;5030769;28;20318;-85
2022/05/23 11:13:58;;;;;;;3.00;1.52;;;;;;;;;;5033590;28;20199;-84
2022/05/23 11:16:28;;;;;;;2.95;1.85;;;;;;;;;;5034339;28;20242;-86
2022/05/23 11:19:09;;;;;;;1.70;1.60;;;;;;;;;;5038100;28;20207;-87
2022/05/23 11:21:38;;;;;;;1.80;1.70;;;;;;;;;;5048231;28;20234;-82
2022/05/23 11:24:07;;;;;;;2.83;1.38;;;;;;;;;;5040321;28;20222;-86
2022/05/23 11:26:37;;;;;;;2.13;1.40;;;;;;;;;;5033812;28;20281;-86
2022/05/23 11:34:41;;;;;;;3.65;1.60;;;;;;;;;;5033973;28;20226;-87
2022/05/23 11:37:42;;;;;;;5.95;1.55;;;;;;;;;;5032727;28;20242;-87
2022/05/23 11:39:58;;;;;;;2.22;1.80;;;;;;;;;;5032150;28;20202;-86
2022/05/23 11:42:29;;;;;;;2.33;1.42;;;;;;;;;;5033026;28;20318;-86
2022/05/23 11:45:56;;;;;;;2.00;1.63;;;;;;;;;;5032915;28;20215;-87
2022/05/23 11:47:51;;;;;;;6.50;1.90;;;;;;;;;;5012030;28;20581;-85
2022/05/23 11:50:21;;;;;;;3.22;1.33;;;;;;;;;;5006349;28;20212;-87
2022/05/23 11:52:50;;;;;;;3.83;1.83;;;;;;;;;;4994409;28;20235;-89
2022/05/23 11:55:32;;;;;;;5.88;1.85;;;;;;;;;;5005303;28;20754;-87
2022/05/23 11:58:18;;;;;;;2.53;1.38;;;;;;;;;;5012465;28;20896;-86
2022/05/23 12:01:01;;;;;;;6.90;1.92;;;;;;;;;;5004144;28;20232;-87
2022/05/23 12:03:50;;;;;;;3.53;1.58;;;;;;;;;;4992883;28;20227;-88
2022/05/23 12:06:18;;;;;;;2.85;1.70;;;;;;;;;;4993126;28;20239;-86
2022/05/23 12:09:00;;;;;;;2.85;2.05;;;;;;;;;;4992732;28;20204;-86
2022/05/23 12:11:28;;;;;;;4.53;1.70;;;;;;;;;;5007327;28;20246;-85
2022/05/23 12:13:58;;;;;;;3.40;2.03;;;;;;;;;;5012310;28;20641;-85
2022/05/23 12:16:46;;;;;;;2.45;1.90;;;;;;;;;;5012244;28;20660;-87
2022/05/23 12:19:20;;;;;;;3.50;1.98;;;;;;;;;;5011433;28;20207;-86
2022/05/23 12:21:49;;;;;;;2.80;2.00;;;;;;;;;;5011687;28;20289;-86
2022/05/23 12:24:29;;;;;;;2.08;1.88;;;;;;;;;;5012142;28;20670;-86
2022/05/23 12:26:57;;;;;;;2.03;1.63;;;;;;;;;;5011139;28;20386;-83
2022/05/23 12:29:29;;;;;;;4.30;2.63;;;;;;;;;;5010937;28;20271;-86
2022/05/23 12:32:11;;;;;;;2.38;1.90;;;;;;;;;;5011089;28;20235;-86
2022/05/23 12:34:43;;;;;;;2.08;1.75;;;;;;;;;;5011475;28;20290;-88
2022/05/23 12:37:15;;;;;;;3.45;2.20;;;;;;;;;;5011014;28;20668;-86
2022/05/23 12:39:51;;;;;;;3.30;2.15;;;;;;;;;;5001413;28;20204;-85
2022/05/23 12:42:30;;;;;;;3.65;2.35;;;;;;;;;;5007679;28;20227;-86
2022/05/23 12:45:11;;;;;;;3.53;2.10;;;;;;;;;;5015000;28;20675;-86
2022/05/23 12:47:55;;;;;;;5.18;2.33;;;;;;;;;;5015060;28;20598;-85
2022/05/23 12:50:27;;;;;;;3.15;1.90;;;;;;;;;;5014545;28;20292;-87
2022/05/23 12:53:04;;;;;;;6.50;2.17;;;;;;;;;;4997375;28;20192;-86
2022/05/23 12:55:38;;;;;;;2.47;2.00;;;;;;;;;;5014500;28;20234;-85
2022/05/23 12:58:16;;;;;;;4.80;2.00;;;;;;;;;;5014637;28;20206;-85
2022/05/23 13:00:46;;;;;;;6.10;2.28;;;;;;;;;;5014563;28;20310;-85
2022/05/23 13:03:18;;;;;;;4.65;2.30;;;;;;;;;;5015620;28;20250;-87
2022/05/23 13:05:50;;;;;;;2.63;2.08;;;;;;;;;;5016549;28;20238;-84
2022/05/23 13:08:20;;;;;;;5.05;2.80;;;;;;;;;;5016170;28;20207;-87
2022/05/23 13:10:50;;;;;;;3.53;2.40;;;;;;;;;;5011825;28;20257;-83
2022/05/23 13:13:21;;;;;;;4.55;2.55;;;;;;;;;;5016853;28;20207;-87
2022/05/23 13:15:49;;;;;;;4.07;2.28;;;;;;;;;;5017518;28;20235;-86
2022/05/23 13:23:48;;;;;;;3.45;2.30;;;;;;;;;;5018299;28;20267;-85
2022/05/23 13:26:15;;;;;;;5.28;2.38;;;;;;;;;;5023197;28;20246;-84
2022/05/23 13:28:43;;;;;;;4.10;2.53;;;;;;;;;;5018295;28;20730;-85
2022/05/23 13:31:24;;;;;;;3.22;2.47;;;;;;;;;;5016258;28;20239;-85
2022/05/23 13:33:51;;;;;;;6.35;2.60;;;;;;;;;;5016107;28;20271;-84
2022/05/23 13:36:21;;;;;;;3.10;2.35;;;;;;;;;;4999493;28;20240;-85
2022/05/23 13:39:04;;;;;;;4.63;2.50;;;;;;;;;;5012448;28;20230;-84
2022/05/23 13:41:32;;;;;;;5.50;2.45;;;;;;;;;;5014484;28;20648;-85
2022/05/23 13:43:59;;;;;;;5.18;2.30;;;;;;;;;;5014116;28;20227;-84
2022/05/23 13:46:28;;;;;;;6.20;2.55;;;;;;;;;;5019889;28;20691;-83
2022/05/23 13:48:57;;;;;;;2.80;2.47;;;;;;;;;;5035294;28;20660;-83
2022/05/23 13:51:28;;;;;;;6.63;2.95;;;;;;;;;;5037674;28;20230;-80
2022/05/23 13:53:59;;;;;;;3.97;2.28;;;;;;;;;;5034177;28;20260;-81
2022/05/23 13:56:27;;;;;;;2.65;2.28;;;;;;;;;;5033712;28;20265;-80
2022/05/23 13:58:57;;;;;;;4.45;2.22;;;;;;;;;;5033507;28;20209;-79
2022/05/23 14:01:26;;;;;;;5.10;2.88;;;;;;;;;;5034300;28;20245;-82
2022/05/23 14:03:56;;;;;;;4.80;2.58;;;;;;;;;;5033442;28;20237;-82
2022/05/23 14:06:27;;;;;;;6.68;2.50;;;;;;;;;;5033247;28;20738;-83
2022/05/23 14:08:56;;;;;;;5.07;2.05;;;;;;;;;;5033931;28;20207;-80
2022/05/23 14:11:24;;;;;;;5.65;3.05;;;;;;;;;;5033417;28;20725;-84
2022/05/23 14:13:52;;;;;;;4.30;2.20;;;;;;;;;;5033229;28;20203;-82
2022/05/23 14:16:20;;;;;;;5.00;2.60;;;;;;;;;;5032695;28;20329;-83
2022/05/23 14:19:02;;;;;;;3.80;2.30;;;;;;;;;;5032528;28;20552;-83
2022/05/23 14:21:34;;;;;;;3.35;2.40;;;;;;;;;;5032815;28;20759;-86
2022/05/23 14:24:10;;;;;;;2.67;2.17;;;;;;;;;;5033119;28;20234;-80
2022/05/23 14:26:38;;;;;;;5.90;2.45;;;;;;;;;;5032242;28;20718;-82
2022/05/23 14:29:11;;;;;;;6.47;2.40;;;;;;;;;;5031659;28;20211;-84
2022/05/23 14:31:44;;;;;;;5.78;2.58;;;;;;;;;;5033022;28;20688;-83
2022/05/23 14:34:15;;;;;;;5.22;2.83;;;;;;;;;;5032871;28;20207;-84
2022/05/23 14:36:52;;;;;;;4.00;2.80;;;;;;;;;;5032426;28;20238;-83
2022/05/23 14:39:22;;;;;;;5.57;2.53;;;;;;;;;;5066908;22;20286;-84
2022/05/23 14:41:49;;;;;;;5.53;2.67;;;;;;;;;;5056083;28;20234;-84
2022/05/23 14:44:29;;;;;;;6.13;2.40;;;;;;;;;;5057848;28;21798;-83
2022/05/23 14:47:01;;;;;;;2.88;1.92;;;;;;;;;;5080376;28;20256;-85
2022/05/23 14:49:30;;;;;;;3.22;2.22;;;;;;;;;;5063656;28;20649;-85
2022/05/23 14:51:58;;;;;;;4.55;2.40;;;;;;;;;;5056492;28;20667;-84
2022/05/23 14:57:12;;;;;;;3.85;2.15;;;;;;;;;;5056830;28;20229;-86
2022/05/23 15:02:28;;;;;;;4.93;2.05;;;;;;;;;;5053975;28;20324;-84
2022/05/23 15:04:55;;;;;;;5.93;2.45;;;;;;;;;;5052824;28;20221;-83
2022/05/23 15:07:24;;;;;;;3.17;2.30;;;;;;;;;;5053509;28;20836;-83
2022/05/23 15:09:51;;;;;;;2.20;1.95;;;;;;;;;;5052542;28;20202;-85
2022/05/23 15:12:20;;;;;;;5.85;2.42;;;;;;;;;;5022302;28;20234;-82
2022/05/23 15:14:48;;;;;;;8.43;2.33;;;;;;;;;;5025830;28;20207;-83
2022/05/23 15:17:16;;;;;;;6.03;2.47;;;;;;;;;;5032893;28;20288;-82
2022/05/23 15:19:43;;;;;;;4.53;2.28;;;;;;;;;;5032549;28;20779;-82
2022/05/23 15:22:13;;;;;;;6.35;2.33;;;;;;;;;;5033023;28;20317;-83
2022/05/23 15:24:42;;;;;;;2.63;2.10;;;;;;;;;;5033922;28;20210;-83
2022/05/23 15:27:09;;;;;;;6.20;2.30;;;;;;;;;;5033765;28;20244;-82
2022/05/23 15:29:37;;;;;;;4.15;2.17;;;;;;;;;;5032311;28;20218;-82
2022/05/23 15:32:04;;;;;;;4.30;2.10;;;;;;;;;;5032446;28;20238;-83
2022/05/23 15:34:31;;;;;;;5.95;2.45;;;;;;;;;;5026080;28;20195;-82
2022/05/23 15:36:58;;;;;;;5.30;2.40;;;;;;;;;;5015964;28;20646;-85
2022/05/23 15:39:25;;;;;;;3.67;2.08;;;;;;;;;;5032272;28;20640;-82
2022/05/23 15:41:55;;;;;;;3.75;1.75;;;;;;;;;;5031884;28;20272;-84
2022/05/23 15:44:28;;;;;;;3.88;2.20;;;;;;;;;;5034150;28;20213;-82
2022/05/23 15:46:55;;;;;;;3.92;2.53;;;;;;;;;;5033082;28;20308;-82
2022/05/23 15:49:22;;;;;;;5.07;1.85;;;;;;;;;;5032604;28;20284;-83
2022/05/23 15:51:49;;;;;;;5.82;2.08;;;;;;;;;;5032594;28;20227;-83
2022/05/23 15:54:16;;;;;;;4.25;2.25;;;;;;;;;;5032895;28;20214;-83
2022/05/23 15:56:44;;;;;;;5.55;2.10;;;;;;;;;;5036652;28;20665;-83
2022/05/23 15:59:13;;;;;;;6.07;2.20;;;;;;;;;;5034111;28;20605;-86
2022/05/23 16:01:40;;;;;;;6.82;2.60;;;;;;;;;;5032888;28;20325;-85
2022/05/23 16:04:10;;;;;;;5.57;2.20;;;;;;;;;;5020043;28;20231;-84